createdAt,value
2023-02-23T00:00:45.551Z,4.77
2023-02-23T00:01:45.580Z,4.77
2023-02-23T00:02:45.724Z,4.78
2023-02-23T00:03:45.658Z,4.78
2023-02-23T00:04:45.685Z,4.78
2023-02-23T00:05:45.724Z,4.78
2023-02-23T00:06:45.864Z,4.78
2023-02-23T00:07:45.789Z,4.78
2023-02-23T00:08:45.823Z,4.78
2023-02-23T00:09:45.861Z,4.78
2023-02-23T00:10:45.904Z,4.8
2023-02-23T00:11:45.933Z,4.8
2023-02-23T00:12:45.976Z,4.8
2023-02-23T00:13:46.001Z,4.8
2023-02-23T00:14:46.051Z,4.83
2023-02-23T00:15:46.072Z,4.82
2023-02-23T00:16:46.160Z,4.81
2023-02-23T00:17:46.146Z,4.82
2023-02-23T00:18:46.216Z,4.81
2023-02-23T00:19:46.230Z,4.82
2023-02-23T00:20:46.265Z,4.82
2023-02-23T00:21:46.290Z,4.82
2023-02-23T00:22:46.332Z,4.83
2023-02-23T00:23:46.362Z,4.82
2023-02-23T00:24:46.392Z,4.84
2023-02-23T00:25:46.430Z,4.83
2023-02-23T00:26:46.461Z,4.83
2023-02-23T00:27:46.489Z,4.82
2023-02-23T00:28:46.521Z,4.81
2023-02-23T00:29:46.560Z,4.82
2023-02-23T00:30:46.670Z,4.81
2023-02-23T00:31:46.695Z,4.81
2023-02-23T00:32:46.718Z,4.82
2023-02-23T00:33:46.693Z,4.81
2023-02-23T00:34:46.724Z,4.82
2023-02-23T00:35:46.760Z,4.81
2023-02-23T00:36:46.790Z,4.81
2023-02-23T00:37:46.826Z,4.81
2023-02-23T00:38:46.858Z,4.81
2023-02-23T00:39:46.882Z,4.82
2023-02-23T00:40:46.929Z,4.82
2023-02-23T00:41:46.950Z,4.82
2023-02-23T00:42:46.990Z,4.81
2023-02-23T00:43:47.021Z,4.82
2023-02-23T00:44:47.054Z,4.82
2023-02-23T00:45:47.090Z,4.82
2023-02-23T00:46:47.116Z,4.85
2023-02-23T00:47:47.146Z,4.85
2023-02-23T00:48:47.182Z,4.84
2023-02-23T00:49:47.216Z,4.84
2023-02-23T00:50:47.242Z,4.83
2023-02-23T00:51:47.290Z,4.82
2023-02-23T00:52:47.324Z,4.83
2023-02-23T00:53:47.358Z,4.83
2023-02-23T00:54:47.386Z,4.83
2023-02-23T00:55:47.418Z,4.84
2023-02-23T00:56:47.450Z,4.83
2023-02-23T00:57:47.481Z,4.84
2023-02-23T00:58:47.518Z,4.84
2023-02-23T00:59:47.549Z,4.83
2023-02-23T01:00:47.586Z,4.86
2023-02-23T01:01:47.615Z,4.86
2023-02-23T01:02:47.639Z,4.84
2023-02-23T01:03:47.672Z,4.83
2023-02-23T01:04:47.709Z,4.83
2023-02-23T01:05:47.734Z,4.81
2023-02-23T01:06:47.771Z,4.8
2023-02-23T01:07:47.812Z,4.81
2023-02-23T01:08:47.841Z,4.81
2023-02-23T01:09:47.872Z,4.82
2023-02-23T01:10:47.903Z,4.82
2023-02-23T01:11:47.942Z,4.79
2023-02-23T01:12:47.972Z,4.8
2023-02-23T01:13:48.008Z,4.8
2023-02-23T01:14:48.041Z,4.81
2023-02-23T01:15:48.132Z,4.81
2023-02-23T01:16:48.101Z,4.82
2023-02-23T01:17:48.130Z,4.81
2023-02-23T01:18:48.171Z,4.8
2023-02-23T01:19:48.212Z,4.81
2023-02-23T01:20:48.241Z,4.79
2023-02-23T01:21:48.266Z,4.86
2023-02-23T01:22:48.300Z,4.83
2023-02-23T01:23:48.334Z,4.82
2023-02-23T01:24:48.385Z,4.82
2023-02-23T01:25:48.400Z,4.79
2023-02-23T01:26:48.428Z,4.8
2023-02-23T01:27:48.462Z,4.79
2023-02-23T01:28:48.520Z,4.81
2023-02-23T01:29:48.521Z,4.81
2023-02-23T01:30:48.639Z,4.8
2023-02-23T01:31:48.741Z,4.8
2023-02-23T01:32:48.643Z,4.81
2023-02-23T01:33:48.686Z,4.8
2023-02-23T01:34:48.712Z,4.8
2023-02-23T01:35:48.738Z,4.79
2023-02-23T01:36:48.776Z,4.79
2023-02-23T01:37:48.803Z,4.81
2023-02-23T01:38:48.834Z,4.77
2023-02-23T01:39:48.880Z,4.77
2023-02-23T01:40:48.908Z,4.77
2023-02-23T01:41:48.953Z,4.78
2023-02-23T01:42:48.970Z,4.78
2023-02-23T01:43:49.005Z,4.76
2023-02-23T01:44:49.038Z,4.76
2023-02-23T01:45:49.114Z,4.76
2023-02-23T01:46:49.109Z,4.76
2023-02-23T01:47:49.140Z,4.77
2023-02-23T01:48:49.179Z,4.76
2023-02-23T01:49:49.199Z,4.77
2023-02-23T01:50:49.235Z,4.77
2023-02-23T01:51:49.280Z,4.76
2023-02-23T01:52:49.303Z,4.76
2023-02-23T01:53:49.335Z,4.75
2023-02-23T01:54:49.361Z,4.76
2023-02-23T01:55:49.388Z,4.77
2023-02-23T01:56:49.416Z,4.77
2023-02-23T01:57:49.447Z,4.76
2023-02-23T01:58:49.482Z,4.76
2023-02-23T01:59:49.520Z,4.76
2023-02-23T02:00:49.551Z,4.76
2023-02-23T02:01:49.628Z,4.75
2023-02-23T02:02:49.619Z,4.75
2023-02-23T02:03:49.660Z,4.75
2023-02-23T02:04:49.773Z,4.75
2023-02-23T02:05:49.757Z,4.74
2023-02-23T02:06:49.774Z,4.7
2023-02-23T02:07:49.806Z,4.7
2023-02-23T02:08:49.840Z,4.7
2023-02-23T02:09:49.873Z,4.7
2023-02-23T02:10:49.914Z,4.71
2023-02-23T02:11:49.959Z,4.71
2023-02-23T02:12:49.996Z,4.71
2023-02-23T02:13:50.031Z,4.71
2023-02-23T02:14:50.058Z,4.72
2023-02-23T02:15:50.123Z,4.71
2023-02-23T02:16:50.132Z,4.72
2023-02-23T02:17:50.194Z,4.69
2023-02-23T02:18:50.196Z,4.72
2023-02-23T02:19:50.245Z,4.7
2023-02-23T02:20:50.272Z,4.69
2023-02-23T02:21:50.302Z,4.7
2023-02-23T02:22:50.358Z,4.7
2023-02-23T02:23:50.374Z,4.71
2023-02-23T02:24:50.501Z,4.71
2023-02-23T02:25:50.434Z,4.72
2023-02-23T02:26:50.479Z,4.71
2023-02-23T02:27:50.498Z,4.71
2023-02-23T02:28:50.540Z,4.71
2023-02-23T02:29:50.556Z,4.72
2023-02-23T02:30:50.668Z,4.72
2023-02-23T02:31:50.703Z,4.69
2023-02-23T02:32:50.654Z,4.7
2023-02-23T02:33:50.678Z,4.7
2023-02-23T02:34:50.710Z,4.72
2023-02-23T02:35:50.754Z,4.69
2023-02-23T02:36:50.780Z,4.67
2023-02-23T02:37:50.808Z,4.68
2023-02-23T02:38:50.836Z,4.68
2023-02-23T02:39:50.874Z,4.67
2023-02-23T02:40:50.912Z,4.68
2023-02-23T02:41:50.942Z,4.68
2023-02-23T02:42:50.975Z,4.68
2023-02-23T02:43:51.082Z,4.68
2023-02-23T02:44:51.045Z,4.69
2023-02-23T02:45:51.124Z,4.67
2023-02-23T02:46:51.099Z,4.68
2023-02-23T02:47:51.140Z,4.66
2023-02-23T02:48:51.181Z,4.67
2023-02-23T02:49:51.220Z,4.67
2023-02-23T02:50:51.248Z,4.67
2023-02-23T02:51:51.290Z,4.67
2023-02-23T02:52:51.322Z,4.67
2023-02-23T02:53:51.357Z,4.68
2023-02-23T02:54:51.389Z,4.68
2023-02-23T02:55:51.443Z,4.68
2023-02-23T02:56:51.502Z,4.68
2023-02-23T02:57:51.505Z,4.65
2023-02-23T02:58:51.526Z,4.61
2023-02-23T02:59:51.566Z,4.61
2023-02-23T03:00:51.596Z,4.61
2023-02-23T03:01:51.694Z,4.61
2023-02-23T03:02:51.659Z,4.64
2023-02-23T03:03:51.707Z,4.64
2023-02-23T03:04:51.810Z,4.64
2023-02-23T03:05:51.767Z,4.64
2023-02-23T03:06:51.793Z,4.64
2023-02-23T03:07:51.823Z,4.64
2023-02-23T03:08:51.862Z,4.62
2023-02-23T03:09:51.895Z,4.62
2023-02-23T03:10:51.941Z,4.62
2023-02-23T03:11:53.944Z,4.62
2023-02-23T03:12:52.006Z,4.62
2023-02-23T03:13:52.049Z,4.63
2023-02-23T03:14:52.096Z,4.62
2023-02-23T03:15:52.139Z,4.63
2023-02-23T03:16:52.145Z,4.61
2023-02-23T03:17:52.184Z,4.61
2023-02-23T03:18:52.219Z,4.61
2023-02-23T03:19:52.258Z,4.57
2023-02-23T03:20:52.307Z,4.57
2023-02-23T03:21:52.326Z,4.58
2023-02-23T03:22:52.359Z,4.57
2023-02-23T03:23:52.406Z,4.57
2023-02-23T03:24:52.440Z,4.57
2023-02-23T03:25:52.473Z,4.57
2023-02-23T03:26:52.537Z,4.56
2023-02-23T03:27:52.532Z,4.56
2023-02-23T03:28:52.555Z,4.56
2023-02-23T03:29:52.593Z,4.56
2023-02-23T03:30:52.661Z,4.57
2023-02-23T03:31:52.757Z,4.57
2023-02-23T03:32:52.688Z,4.55
2023-02-23T03:33:52.711Z,4.55
2023-02-23T03:34:52.751Z,4.55
2023-02-23T03:35:52.779Z,4.55
2023-02-23T03:36:52.817Z,4.5
2023-02-23T03:37:52.849Z,4.5
2023-02-23T03:38:52.887Z,4.51
2023-02-23T03:39:52.916Z,4.49
2023-02-23T03:40:52.960Z,4.49
2023-02-23T03:41:52.997Z,4.49
2023-02-23T03:42:53.019Z,4.49
2023-02-23T03:43:53.065Z,4.5
2023-02-23T03:44:53.089Z,4.5
2023-02-23T03:45:53.197Z,4.5
2023-02-23T03:46:53.164Z,4.48
2023-02-23T03:47:53.200Z,4.48
2023-02-23T03:48:53.220Z,4.48
2023-02-23T03:49:53.269Z,4.49
2023-02-23T03:50:53.299Z,4.49
2023-02-23T03:51:53.332Z,4.49
2023-02-23T03:52:53.361Z,4.47
2023-02-23T03:53:53.395Z,4.47
2023-02-23T03:54:53.433Z,4.44
2023-02-23T03:55:53.475Z,4.44
2023-02-23T03:56:53.495Z,4.44
2023-02-23T03:57:53.534Z,4.46
2023-02-23T03:58:53.579Z,4.46
2023-02-23T03:59:53.610Z,4.45
2023-02-23T04:00:53.631Z,4.46
2023-02-23T04:01:53.707Z,4.44
2023-02-23T04:02:53.691Z,4.45
2023-02-23T04:03:53.803Z,4.45
2023-02-23T04:04:53.765Z,4.45
2023-02-23T04:05:53.802Z,4.46
2023-02-23T04:06:53.832Z,4.46
2023-02-23T04:07:53.865Z,4.46
2023-02-23T04:08:53.902Z,4.46
2023-02-23T04:09:53.938Z,4.44
2023-02-23T04:10:53.972Z,4.44
2023-02-23T04:11:53.994Z,4.45
2023-02-23T04:12:54.034Z,4.45
2023-02-23T04:13:54.065Z,4.45
2023-02-23T04:14:54.098Z,4.45
2023-02-23T04:15:54.134Z,4.45
2023-02-23T04:16:54.162Z,4.45
2023-02-23T04:17:54.197Z,4.45
2023-02-23T04:18:54.235Z,4.45
2023-02-23T04:19:54.286Z,4.39
2023-02-23T04:20:54.348Z,4.41
2023-02-23T04:21:54.327Z,4.41
2023-02-23T04:22:54.392Z,4.38
2023-02-23T04:23:54.395Z,4.39
2023-02-23T04:24:54.431Z,4.39
2023-02-23T04:25:54.457Z,4.39
2023-02-23T04:26:54.490Z,4.39
2023-02-23T04:27:54.525Z,4.39
2023-02-23T04:28:54.560Z,4.39
2023-02-23T04:29:54.598Z,4.4
2023-02-23T04:30:54.706Z,4.4
2023-02-23T04:31:54.755Z,4.39
2023-02-23T04:32:54.714Z,4.39
2023-02-23T04:33:54.750Z,4.39
2023-02-23T04:34:54.778Z,4.39
2023-02-23T04:35:54.816Z,4.4
2023-02-23T04:36:54.848Z,4.4
2023-02-23T04:37:54.882Z,4.38
2023-02-23T04:38:54.921Z,4.38
2023-02-23T04:39:54.946Z,4.38
2023-02-23T04:40:54.982Z,4.37
2023-02-23T04:41:55.033Z,4.38
2023-02-23T04:42:55.060Z,4.38
2023-02-23T04:43:55.085Z,4.39
2023-02-23T04:44:55.116Z,4.38
2023-02-23T04:45:55.225Z,4.38
2023-02-23T04:46:55.195Z,4.33
2023-02-23T04:47:55.219Z,4.34
2023-02-23T04:48:55.260Z,4.34
2023-02-23T04:49:55.290Z,4.34
2023-02-23T04:50:55.320Z,4.34
2023-02-23T04:51:55.358Z,4.32
2023-02-23T04:52:55.382Z,4.31
2023-02-23T04:53:55.410Z,4.31
2023-02-23T04:54:55.448Z,4.32
2023-02-23T04:55:55.486Z,4.33
2023-02-23T04:56:55.525Z,4.33
2023-02-23T04:57:55.558Z,4.33
2023-02-23T04:58:55.579Z,4.33
2023-02-23T04:59:55.614Z,4.33
2023-02-23T05:00:55.658Z,4.33
2023-02-23T05:01:55.688Z,4.33
2023-02-23T05:02:55.715Z,4.31
2023-02-23T05:03:55.767Z,4.32
2023-02-23T05:04:55.829Z,4.31
2023-02-23T05:05:55.804Z,4.32
2023-02-23T05:06:55.841Z,4.32
2023-02-23T05:07:55.880Z,4.32
2023-02-23T05:08:55.907Z,4.32
2023-02-23T05:09:55.936Z,4.33
2023-02-23T05:10:55.983Z,4.33
2023-02-23T05:11:56.012Z,4.33
2023-02-23T05:12:56.053Z,4.33
2023-02-23T05:13:56.093Z,4.31
2023-02-23T05:14:56.119Z,4.31
2023-02-23T05:15:56.213Z,4.31
2023-02-23T05:16:56.181Z,4.33
2023-02-23T05:17:56.227Z,4.3
2023-02-23T05:18:56.261Z,4.28
2023-02-23T05:19:56.296Z,4.28
2023-02-23T05:20:56.464Z,4.28
2023-02-23T05:21:56.356Z,4.3
2023-02-23T05:22:56.388Z,4.3
2023-02-23T05:23:56.411Z,4.28
2023-02-23T05:24:57.566Z,4.29
2023-02-23T05:25:56.473Z,4.29
2023-02-23T05:26:56.500Z,4.29
2023-02-23T05:27:56.545Z,4.29
2023-02-23T05:28:56.565Z,4.29
2023-02-23T05:29:56.603Z,4.3
2023-02-23T05:30:56.719Z,4.3
2023-02-23T05:31:56.810Z,4.3
2023-02-23T05:32:56.700Z,4.29
2023-02-23T05:33:56.735Z,4.29
2023-02-23T05:34:56.776Z,4.24
2023-02-23T05:35:56.800Z,4.25
2023-02-23T05:36:56.835Z,4.25
2023-02-23T05:37:56.857Z,4.24
2023-02-23T05:38:56.885Z,4.25
2023-02-23T05:39:56.920Z,4.25
2023-02-23T05:40:56.952Z,4.23
2023-02-23T05:41:57.000Z,4.22
2023-02-23T05:42:57.025Z,4.22
2023-02-23T05:43:57.073Z,4.23
2023-02-23T05:44:57.104Z,4.23
2023-02-23T05:45:57.161Z,4.23
2023-02-23T05:46:57.163Z,4.21
2023-02-23T05:47:57.194Z,4.21
2023-02-23T05:48:57.224Z,4.21
2023-02-23T05:49:57.276Z,4.22
2023-02-23T05:50:57.286Z,4.22
2023-02-23T05:51:57.326Z,4.23
2023-02-23T05:52:57.350Z,4.22
2023-02-23T05:53:57.395Z,4.19
2023-02-23T05:54:57.434Z,4.17
2023-02-23T05:55:57.460Z,4.17
2023-02-23T05:56:57.494Z,4.17
2023-02-23T05:57:57.533Z,4.17
2023-02-23T05:58:57.572Z,4.18
2023-02-23T05:59:57.602Z,4.18
2023-02-23T06:00:57.623Z,4.18
2023-02-23T06:01:57.663Z,4.18
2023-02-23T06:02:57.728Z,4.18
2023-02-23T06:03:57.818Z,4.18
2023-02-23T06:04:57.763Z,4.16
2023-02-23T06:05:57.800Z,4.16
2023-02-23T06:06:57.832Z,4.16
2023-02-23T06:07:57.863Z,4.17
2023-02-23T06:08:57.911Z,4.17
2023-02-23T06:09:57.940Z,4.16
2023-02-23T06:10:57.984Z,4.17
2023-02-23T06:11:58.014Z,4.17
2023-02-23T06:12:58.070Z,4.12
2023-02-23T06:13:58.075Z,4.12
2023-02-23T06:14:58.103Z,4.14
2023-02-23T06:15:58.141Z,4.14
2023-02-23T06:16:58.189Z,4.14
2023-02-23T06:17:58.219Z,4.12
2023-02-23T06:18:58.242Z,4.12
2023-02-23T06:19:58.264Z,4.11
2023-02-23T06:20:58.300Z,4.14
2023-02-23T06:21:58.333Z,4.12
2023-02-23T06:22:58.373Z,4.12
2023-02-23T06:23:58.408Z,4.14
2023-02-23T06:24:58.440Z,4.12
2023-02-23T06:25:58.497Z,4.14
2023-02-23T06:26:58.527Z,4.14
2023-02-23T06:27:58.567Z,4.14
2023-02-23T06:28:58.598Z,4.15
2023-02-23T06:29:58.638Z,4.15
2023-02-23T06:30:58.822Z,4.13
2023-02-23T06:32:00.822Z,4.13
2023-02-23T06:32:58.729Z,4.14
2023-02-23T06:33:58.756Z,4.14
2023-02-23T06:34:58.797Z,4.16
2023-02-23T06:35:58.824Z,4.16
2023-02-23T06:36:58.868Z,4.15
2023-02-23T06:37:58.895Z,4.17
2023-02-23T06:38:58.939Z,4.17
2023-02-23T06:39:58.970Z,4.15
2023-02-23T06:40:58.995Z,4.16
2023-02-23T06:41:59.044Z,4.17
2023-02-23T06:42:59.068Z,4.16
2023-02-23T06:43:59.100Z,4.17
2023-02-23T06:44:59.138Z,4.17
2023-02-23T06:45:59.172Z,4.18
2023-02-23T06:46:59.233Z,4.21
2023-02-23T06:47:59.237Z,4.22
2023-02-23T06:48:59.269Z,4.22
2023-02-23T06:49:59.305Z,4.22
2023-02-23T06:50:59.339Z,4.23
2023-02-23T06:51:59.377Z,4.24
2023-02-23T06:52:59.408Z,4.24
2023-02-23T06:53:59.440Z,4.24
2023-02-23T06:54:59.472Z,4.24
2023-02-23T06:55:59.525Z,4.24
2023-02-23T06:56:59.544Z,4.25
2023-02-23T06:57:59.567Z,4.25
2023-02-23T06:58:59.605Z,4.26
2023-02-23T06:59:59.647Z,4.23
2023-02-23T07:00:59.687Z,4.27
2023-02-23T07:01:59.749Z,4.29
2023-02-23T07:02:59.756Z,4.28
2023-02-23T07:03:59.825Z,4.3
2023-02-23T07:04:59.828Z,4.3
2023-02-23T07:05:59.875Z,4.3
2023-02-23T07:06:59.877Z,4.29
2023-02-23T07:07:59.909Z,4.3
2023-02-23T07:08:59.945Z,4.3
2023-02-23T07:09:59.981Z,4.29
2023-02-23T07:11:00.028Z,4.29
2023-02-23T07:12:00.072Z,4.28
2023-02-23T07:13:00.094Z,4.31
2023-02-23T07:14:00.135Z,4.35
2023-02-23T07:15:00.155Z,4.36
2023-02-23T07:16:00.196Z,4.35
2023-02-23T07:17:00.207Z,4.34
2023-02-23T07:18:00.243Z,4.32
2023-02-23T07:19:00.279Z,4.32
2023-02-23T07:20:00.316Z,4.37
2023-02-23T07:21:00.353Z,4.37
2023-02-23T07:22:00.385Z,4.32
2023-02-23T07:23:00.427Z,4.35
2023-02-23T07:24:00.455Z,4.34
2023-02-23T07:25:00.480Z,4.39
2023-02-23T07:26:00.506Z,4.4
2023-02-23T07:27:00.544Z,4.4
2023-02-23T07:28:00.579Z,4.39
2023-02-23T07:29:00.622Z,4.39
2023-02-23T07:30:00.648Z,4.36
2023-02-23T07:31:00.744Z,4.36
2023-02-23T07:32:00.901Z,4.39
2023-02-23T07:33:00.745Z,4.38
2023-02-23T07:34:00.776Z,4.41
2023-02-23T07:35:00.812Z,4.41
2023-02-23T07:36:00.850Z,4.44
2023-02-23T07:37:00.887Z,4.44
2023-02-23T07:38:00.920Z,4.46
2023-02-23T07:39:00.950Z,4.45
2023-02-23T07:40:01.527Z,4.44
2023-02-23T07:41:01.021Z,4.46
2023-02-23T07:42:01.050Z,4.44
2023-02-23T07:43:01.084Z,4.45
2023-02-23T07:44:01.129Z,4.46
2023-02-23T07:45:01.147Z,4.44
2023-02-23T07:46:01.241Z,4.46
2023-02-23T07:47:01.239Z,4.46
2023-02-23T07:48:01.267Z,4.5
2023-02-23T07:49:01.325Z,4.52
2023-02-23T07:50:01.330Z,4.52
2023-02-23T07:51:01.364Z,4.51
2023-02-23T07:52:01.395Z,4.52
2023-02-23T07:53:01.432Z,4.55
2023-02-23T07:54:01.479Z,4.55
2023-02-23T07:55:01.474Z,4.58
2023-02-23T07:56:01.510Z,4.57
2023-02-23T07:57:01.548Z,4.59
2023-02-23T07:58:01.582Z,4.59
2023-02-23T07:59:01.623Z,4.6
2023-02-23T08:00:01.653Z,4.58
2023-02-23T08:01:01.708Z,4.6
2023-02-23T08:02:01.722Z,4.6
2023-02-23T08:03:01.768Z,4.62
2023-02-23T08:04:01.844Z,4.62
2023-02-23T08:05:01.835Z,4.64
2023-02-23T08:06:01.858Z,4.66
2023-02-23T08:07:01.884Z,4.64
2023-02-23T08:08:01.916Z,4.64
2023-02-23T08:09:01.967Z,4.71
2023-02-23T08:10:02.025Z,4.71
2023-02-23T08:11:02.035Z,4.71
2023-02-23T08:12:02.071Z,4.68
2023-02-23T08:13:02.166Z,4.7
2023-02-23T08:14:02.137Z,4.75
2023-02-23T08:15:02.174Z,4.77
2023-02-23T08:16:02.203Z,4.76
2023-02-23T08:17:02.324Z,4.76
2023-02-23T08:18:02.283Z,4.78
2023-02-23T08:19:02.307Z,4.8
2023-02-23T08:20:02.352Z,4.82
2023-02-23T08:21:02.389Z,4.81
2023-02-23T08:22:02.414Z,4.85
2023-02-23T08:23:02.437Z,4.88
2023-02-23T08:24:02.475Z,4.87
2023-02-23T08:25:02.505Z,4.87
2023-02-23T08:26:02.561Z,4.84
2023-02-23T08:27:02.569Z,4.85
2023-02-23T08:28:04.553Z,4.9
2023-02-23T08:29:02.637Z,4.9
2023-02-23T08:30:02.681Z,4.91
2023-02-23T08:31:02.808Z,4.94
2023-02-23T08:32:02.946Z,4.96
2023-02-23T08:33:02.786Z,4.98
2023-02-23T08:34:02.824Z,4.96
2023-02-23T08:35:02.868Z,4.95
2023-02-23T08:36:02.916Z,5
2023-02-23T08:37:02.940Z,4.99
2023-02-23T08:38:03.002Z,4.98
2023-02-23T08:39:03.011Z,4.99
2023-02-23T08:40:03.052Z,5.02
2023-02-23T08:41:03.082Z,5.02
2023-02-23T08:42:03.114Z,5.02
2023-02-23T08:43:03.145Z,5.04
2023-02-23T08:44:03.190Z,5
2023-02-23T08:45:03.216Z,5
2023-02-23T08:46:03.336Z,5.02
2023-02-23T08:47:03.275Z,5.02
2023-02-23T08:48:03.316Z,5.04
2023-02-23T08:49:03.351Z,5.03
2023-02-23T08:50:03.378Z,5.03
2023-02-23T08:51:03.422Z,5.04
2023-02-23T08:52:03.433Z,5.09
2023-02-23T08:53:03.470Z,5.1
2023-02-23T08:54:03.502Z,5.08
2023-02-23T08:55:03.537Z,5.1
2023-02-23T08:56:03.562Z,5.09
2023-02-23T08:57:03.599Z,5.05
2023-02-23T08:58:03.623Z,5.06
2023-02-23T08:59:03.669Z,5.08
2023-02-23T09:00:03.697Z,5.06
2023-02-23T09:01:03.831Z,5.1
2023-02-23T09:02:03.770Z,5.13
2023-02-23T09:03:03.803Z,5.14
2023-02-23T09:04:03.833Z,5.09
2023-02-23T09:05:03.908Z,5.09
2023-02-23T09:06:03.910Z,5.1
2023-02-23T09:07:03.940Z,5.14
2023-02-23T09:08:03.977Z,5.15
2023-02-23T09:09:04.008Z,5.21
2023-02-23T09:10:04.043Z,5.2
2023-02-23T09:11:04.089Z,5.19
2023-02-23T09:12:04.125Z,5.19
2023-02-23T09:13:04.153Z,5.2
2023-02-23T09:14:04.193Z,5.21
2023-02-23T09:15:04.227Z,5.22
2023-02-23T09:16:04.388Z,5.26
2023-02-23T09:17:04.313Z,5.29
2023-02-23T09:18:04.353Z,5.3
2023-02-23T09:19:04.382Z,5.3
2023-02-23T09:20:04.400Z,5.35
2023-02-23T09:21:04.439Z,5.35
2023-02-23T09:22:04.469Z,5.36
2023-02-23T09:23:04.509Z,5.36
2023-02-23T09:24:04.538Z,5.37
2023-02-23T09:25:04.579Z,5.39
2023-02-23T09:26:04.606Z,5.39
2023-02-23T09:27:04.659Z,5.38
2023-02-23T09:28:04.678Z,5.36
2023-02-23T09:29:04.716Z,5.35
2023-02-23T09:30:04.748Z,5.39
2023-02-23T09:31:04.896Z,5.4
2023-02-23T09:32:05.019Z,5.46
2023-02-23T09:33:04.846Z,5.48
2023-02-23T09:34:04.891Z,5.5
2023-02-23T09:35:04.919Z,5.47
2023-02-23T09:36:04.956Z,5.5
2023-02-23T09:37:04.996Z,5.5
2023-02-23T09:38:05.017Z,5.57
2023-02-23T09:39:05.049Z,5.61
2023-02-23T09:40:05.089Z,5.62
2023-02-23T09:41:05.125Z,5.64
2023-02-23T09:42:05.159Z,5.65
2023-02-23T09:43:05.201Z,5.69
2023-02-23T09:44:05.226Z,5.68
2023-02-23T09:45:05.264Z,5.75
2023-02-23T09:46:05.303Z,5.77
2023-02-23T09:47:05.329Z,5.77
2023-02-23T09:48:05.361Z,5.82
2023-02-23T09:49:05.401Z,5.84
2023-02-23T09:50:05.440Z,5.81
2023-02-23T09:51:05.469Z,5.86
2023-02-23T09:52:05.505Z,5.85
2023-02-23T09:53:05.524Z,5.92
2023-02-23T09:54:05.552Z,5.98
2023-02-23T09:55:05.584Z,5.99
2023-02-23T09:56:05.620Z,6.06
2023-02-23T09:57:05.659Z,6.05
2023-02-23T09:58:05.704Z,6.11
2023-02-23T09:59:05.713Z,6.14
2023-02-23T10:00:05.759Z,6.19
2023-02-23T10:01:05.792Z,6.22
2023-02-23T10:02:05.829Z,6.24
2023-02-23T10:03:05.860Z,6.25
2023-02-23T10:04:05.885Z,6.29
2023-02-23T10:05:06.123Z,6.34
2023-02-23T10:06:05.956Z,6.37
2023-02-23T10:07:05.989Z,6.38
2023-02-23T10:08:06.034Z,6.43
2023-02-23T10:09:06.059Z,6.44
2023-02-23T10:10:06.121Z,6.48
2023-02-23T10:11:06.128Z,6.5
2023-02-23T10:12:06.160Z,6.56
2023-02-23T10:13:06.192Z,6.56
2023-02-23T10:14:06.221Z,6.63
2023-02-23T10:15:06.249Z,6.69
2023-02-23T10:16:06.338Z,6.66
2023-02-23T10:17:06.342Z,6.71
2023-02-23T10:18:06.359Z,6.76
2023-02-23T10:19:06.412Z,6.79
2023-02-23T10:20:06.435Z,6.77
2023-02-23T10:21:06.467Z,6.84
2023-02-23T10:22:06.577Z,6.89
2023-02-23T10:23:06.550Z,6.89
2023-02-23T10:24:06.579Z,6.99
2023-02-23T10:25:06.634Z,6.98
2023-02-23T10:26:06.662Z,7.03
2023-02-23T10:27:06.682Z,7.09
2023-02-23T10:28:06.704Z,7.08
2023-02-23T10:29:06.734Z,7.15
2023-02-23T10:30:06.772Z,7.14
2023-02-23T10:31:06.932Z,7.24
2023-02-23T10:32:06.977Z,7.29
2023-02-23T10:33:06.883Z,7.3
2023-02-23T10:34:06.913Z,7.37
2023-02-23T10:35:06.945Z,7.43
2023-02-23T10:36:13.240Z,7.45
2023-02-23T10:37:07.028Z,7.46
2023-02-23T10:38:07.053Z,7.48
2023-02-23T10:39:07.082Z,7.52
2023-02-23T10:40:07.109Z,7.56
2023-02-23T10:41:07.129Z,7.57
2023-02-23T10:42:07.169Z,7.61
2023-02-23T10:43:07.205Z,7.62
2023-02-23T10:44:16.345Z,7.62
2023-02-23T10:45:07.276Z,7.64
2023-02-23T10:46:07.346Z,7.65
2023-02-23T10:47:07.320Z,7.65
2023-02-23T10:48:07.382Z,7.69
2023-02-23T10:49:07.401Z,7.69
2023-02-23T10:50:07.448Z,7.75
2023-02-23T10:51:07.523Z,7.76
2023-02-23T10:52:07.554Z,7.77
2023-02-23T10:53:07.544Z,7.83
2023-02-23T10:54:08.202Z,7.82
2023-02-23T10:55:07.632Z,7.81
2023-02-23T10:56:07.654Z,7.86
2023-02-23T10:57:07.697Z,7.93
2023-02-23T10:58:07.734Z,7.94
2023-02-23T10:59:07.764Z,7.93
2023-02-23T11:00:07.802Z,7.95
2023-02-23T11:01:07.847Z,8.01
2023-02-23T11:02:07.959Z,8.02
2023-02-23T11:03:07.905Z,8.05
2023-02-23T11:04:07.946Z,8.05
2023-02-23T11:05:07.986Z,8.07
2023-02-23T11:06:08.011Z,8.1
2023-02-23T11:07:08.064Z,8.09
2023-02-23T11:08:08.090Z,8.13
2023-02-23T11:09:08.140Z,8.13
2023-02-23T11:10:08.155Z,8.17
2023-02-23T11:11:08.198Z,8.21
2023-02-23T11:12:08.240Z,8.25
2023-02-23T11:13:08.268Z,8.3
2023-02-23T11:14:08.306Z,8.29
2023-02-23T11:15:08.336Z,8.36
2023-02-23T11:16:08.401Z,8.39
2023-02-23T11:17:08.423Z,8.41
2023-02-23T11:18:08.434Z,8.44
2023-02-23T11:19:08.482Z,8.45
2023-02-23T11:20:08.519Z,8.46
2023-02-23T11:21:08.554Z,8.48
2023-02-23T11:22:08.634Z,8.49
2023-02-23T11:23:14.212Z,8.53
2023-02-23T11:24:08.660Z,8.5
2023-02-23T11:25:08.678Z,8.47
2023-02-23T11:26:08.709Z,8.37
2023-02-23T11:27:08.748Z,8.4
2023-02-23T11:28:08.775Z,8.46
2023-02-23T11:29:08.814Z,8.44
2023-02-23T11:30:08.845Z,8.44
2023-02-23T11:31:08.970Z,8.4
2023-02-23T11:32:10.403Z,8.39
2023-02-23T11:33:08.959Z,8.47
2023-02-23T11:34:08.985Z,8.49
2023-02-23T11:35:09.008Z,8.49
2023-02-23T11:36:09.102Z,8.47
2023-02-23T11:37:09.121Z,8.45
2023-02-23T11:38:09.108Z,8.4
2023-02-23T11:39:09.151Z,8.39
2023-02-23T11:40:09.178Z,8.37
2023-02-23T11:41:09.215Z,8.34
2023-02-23T11:42:09.253Z,8.35
2023-02-23T11:43:09.288Z,8.34
2023-02-23T11:44:09.317Z,8.33
2023-02-23T11:45:09.363Z,8.34
2023-02-23T11:46:09.404Z,8.33
2023-02-23T11:47:09.469Z,8.36
2023-02-23T11:48:09.443Z,8.37
2023-02-23T11:49:09.475Z,8.35
2023-02-23T11:50:09.501Z,8.33
2023-02-23T11:51:09.546Z,8.36
2023-02-23T11:52:09.586Z,8.36
2023-02-23T11:53:09.610Z,8.37
2023-02-23T11:54:09.637Z,8.43
2023-02-23T11:55:09.678Z,8.45
2023-02-23T11:56:09.713Z,8.42
2023-02-23T11:57:09.754Z,8.43
2023-02-23T11:58:09.783Z,8.41
2023-02-23T11:59:09.813Z,8.4
2023-02-23T12:00:09.851Z,8.43
2023-02-23T12:01:09.895Z,8.46
2023-02-23T12:02:09.920Z,8.42
2023-02-23T12:03:09.994Z,8.42
2023-02-23T12:04:09.984Z,8.36
2023-02-23T12:05:10.086Z,8.38
2023-02-23T12:06:10.196Z,8.36
2023-02-23T12:07:10.101Z,8.35
2023-02-23T12:08:10.222Z,8.31
2023-02-23T12:09:10.154Z,8.3
2023-02-23T12:10:10.211Z,8.27
2023-02-23T12:11:10.233Z,8.3
2023-02-23T12:12:10.260Z,8.3
2023-02-23T12:13:10.308Z,8.31
2023-02-23T12:14:10.332Z,8.26
2023-02-23T12:15:10.372Z,8.25
2023-02-23T12:16:10.435Z,8.27
2023-02-23T12:17:10.444Z,8.28
2023-02-23T12:18:10.479Z,8.26
2023-02-23T12:19:10.515Z,8.29
2023-02-23T12:20:10.555Z,8.27
2023-02-23T12:21:10.588Z,8.24
2023-02-23T12:22:10.609Z,8.27
2023-02-23T12:23:10.648Z,8.28
2023-02-23T12:24:10.681Z,8.28
2023-02-23T12:25:10.713Z,8.29
2023-02-23T12:26:10.742Z,8.31
2023-02-23T12:27:10.778Z,8.35
2023-02-23T12:28:18.873Z,8.35
2023-02-23T12:29:10.841Z,8.33
2023-02-23T12:30:10.874Z,8.3
2023-02-23T12:31:10.900Z,8.28
2023-02-23T12:32:11.028Z,8.3
2023-02-23T12:33:10.988Z,8.29
2023-02-23T12:34:11.006Z,8.29
2023-02-23T12:35:11.039Z,8.32
2023-02-23T12:36:11.080Z,8.33
2023-02-23T12:37:11.113Z,8.33
2023-02-23T12:38:11.136Z,8.33
2023-02-23T12:39:11.167Z,8.32
2023-02-23T12:40:11.203Z,8.31
2023-02-23T12:41:11.232Z,8.31
2023-02-23T12:42:11.275Z,8.24
2023-02-23T12:43:11.308Z,8.24
2023-02-23T12:44:11.344Z,8.24
2023-02-23T12:45:11.372Z,8.26
2023-02-23T12:46:11.472Z,8.22
2023-02-23T12:47:11.455Z,8.22
2023-02-23T12:48:11.497Z,8.22
2023-02-23T12:49:11.520Z,8.23
2023-02-23T12:50:11.555Z,8.25
2023-02-23T12:51:11.591Z,8.25
2023-02-23T12:52:11.630Z,8.27
2023-02-23T12:53:11.675Z,8.22
2023-02-23T12:54:11.716Z,8.23
2023-02-23T12:55:11.749Z,8.24
2023-02-23T12:56:11.772Z,8.28
2023-02-23T12:57:11.810Z,8.27
2023-02-23T12:58:11.834Z,8.27
2023-02-23T12:59:11.867Z,8.27
2023-02-23T13:00:11.941Z,8.27
2023-02-23T13:01:11.989Z,8.26
2023-02-23T13:02:12.014Z,8.25
2023-02-23T13:03:12.008Z,8.24
2023-02-23T13:04:12.043Z,8.25
2023-02-23T13:05:12.068Z,8.29
2023-02-23T13:06:12.105Z,8.26
2023-02-23T13:07:12.128Z,8.26
2023-02-23T13:08:13.718Z,8.23
2023-02-23T13:09:12.194Z,8.24
2023-02-23T13:10:12.357Z,8.25
2023-02-23T13:11:12.274Z,8.25
2023-02-23T13:12:12.313Z,8.2
2023-02-23T13:13:12.348Z,8.19
2023-02-23T13:14:12.376Z,8.21
2023-02-23T13:15:12.412Z,8.25
2023-02-23T13:16:12.471Z,8.26
2023-02-23T13:17:12.478Z,8.25
2023-02-23T13:18:12.523Z,8.27
2023-02-23T13:19:12.544Z,8.28
2023-02-23T13:20:12.581Z,8.28
2023-02-23T13:21:12.636Z,8.26
2023-02-23T13:22:12.648Z,8.23